Time;durP1;ratioP1;P1;durP2;ratioP2;P2;SDS_P1;SDS_P2;PMS_P1;PMS_P2;Temp;Humidity;BMP_temperature;BMP_pressure;BME280_temperature;BME280_humidity;BME280_pressure;Samples;Min_cycle;Max_cycle;Signal;HPM_P1;HPM_P2
2021/09/02 00:01:23;;;;;;;4.97;2.92;;;;;;;;;;5070303;28;20838;-67
2021/09/02 00:03:49;;;;;;;5.78;2.40;;;;;;;;;;5070735;28;20375;-67
2021/09/02 00:07:26;;;;;;;4.35;2.30;;;;;;;;;;5111281;27;20417;-68
2021/09/02 00:09:53;;;;;;;6.47;3.30;;;;;;;;;;5111263;28;20472;-68
2021/09/02 00:12:19;;;;;;;4.78;3.17;;;;;;;;;;5111205;28;20020;-67
2021/09/02 00:18:11;;;;;;;6.15;2.80;;;;;;;;;;5111499;27;20878;-68
2021/09/02 00:23:59;;;;;;;5.00;2.70;;;;;;;;;;5111332;27;20416;-66
2021/09/02 00:28:49;;;;;;;6.10;2.70;;;;;;;;;;5070337;28;20388;-67
2021/09/02 00:31:16;;;;;;;5.75;3.20;;;;;;;;;;5071241;28;20027;-67
2021/09/02 00:33:42;;;;;;;6.50;3.17;;;;;;;;;;5070763;28;20051;-66
2021/09/02 00:36:08;;;;;;;7.10;2.58;;;;;;;;;;5070138;28;20103;-69
2021/09/02 00:39:44;;;;;;;5.72;2.85;;;;;;;;;;5070822;27;20422;-66
2021/09/02 00:42:10;;;;;;;5.75;2.78;;;;;;;;;;5070423;28;20025;-67
2021/09/02 00:44:38;;;;;;;13.02;3.78;;;;;;;;;;5070645;28;20035;-67
2021/09/02 00:48:20;;;;;;;5.50;3.05;;;;;;;;;;5111538;27;20462;-66
2021/09/02 00:50:46;;;;;;;6.35;3.15;;;;;;;;;;5111188;28;20032;-67
2021/09/02 00:53:12;;;;;;;5.65;2.67;;;;;;;;;;5111185;28;20019;-67
2021/09/02 00:55:38;;;;;;;4.68;2.50;;;;;;;;;;5111290;28;20375;-67
2021/09/02 00:58:05;;;;;;;4.88;2.60;;;;;;;;;;5109830;28;20028;-67
2021/09/02 01:00:31;;;;;;;6.40;2.55;;;;;;;;;;5111081;28;20020;-68
2021/09/02 01:02:57;;;;;;;5.93;3.00;;;;;;;;;;5110777;28;20074;-67
2021/09/02 01:05:49;;;;;;;6.97;2.97;;;;;;;;;;5111743;27;21029;-66
2021/09/02 01:08:16;;;;;;;7.38;2.92;;;;;;;;;;5111139;28;20504;-66
2021/09/02 01:10:42;;;;;;;6.35;3.13;;;;;;;;;;5109681;28;20446;-67
2021/09/02 01:16:09;;;;;;;6.95;3.17;;;;;;;;;;5111359;27;20316;-66
2021/09/02 01:20:27;;;;;;;5.03;2.33;;;;;;;;;;5111947;27;20434;-67
2021/09/02 01:22:54;;;;;;;4.70;2.72;;;;;;;;;;5109996;28;20396;-66
2021/09/02 01:27:34;;;;;;;7.15;3.17;;;;;;;;;;5111537;27;20512;-66
2021/09/02 01:30:01;;;;;;;7.18;3.00;;;;;;;;;;5109972;28;20480;-66
2021/09/02 01:32:31;;;;;;;6.95;3.55;;;;;;;;;;5110797;28;20024;-68
2021/09/02 01:34:58;;;;;;;5.20;3.45;;;;;;;;;;5111707;28;20020;-67
2021/09/02 01:37:24;;;;;;;7.40;3.55;;;;;;;;;;5111148;28;20095;-67
2021/09/02 01:39:51;;;;;;;5.35;2.83;;;;;;;;;;5110698;28;20024;-68
2021/09/02 01:42:31;;;;;;;6.20;3.03;;;;;;;;;;5070953;28;20395;-66
2021/09/02 01:44:57;;;;;;;5.72;3.10;;;;;;;;;;5070543;28;20028;-66
2021/09/02 01:47:24;;;;;;;7.00;3.03;;;;;;;;;;5070717;28;20021;-69
2021/09/02 01:49:51;;;;;;;6.82;3.08;;;;;;;;;;5070931;28;20091;-66
2021/09/02 01:54:28;;;;;;;5.38;2.50;;;;;;;;;;5102385;27;1514649;-66
2021/09/02 01:59:33;;;;;;;5.38;2.90;;;;;;;;;;5111328;27;20845;-66
2021/09/02 02:01:59;;;;;;;6.82;3.10;;;;;;;;;;5111303;28;20392;-67
2021/09/02 02:04:25;;;;;;;4.72;2.40;;;;;;;;;;5111203;28;20023;-67
2021/09/02 02:08:02;;;;;;;5.78;2.75;;;;;;;;;;5111338;27;20465;-66
2021/09/02 02:10:28;;;;;;;5.18;2.47;;;;;;;;;;5111522;28;20027;-66
2021/09/02 02:12:55;;;;;;;5.95;2.83;;;;;;;;;;5126593;28;20475;-66
2021/09/02 02:15:22;;;;;;;7.03;3.47;;;;;;;;;;5111202;28;20019;-67
2021/09/02 02:17:48;;;;;;;5.40;2.72;;;;;;;;;;5111260;28;20095;-67
2021/09/02 02:20:14;;;;;;;7.07;2.83;;;;;;;;;;5110733;28;20536;-67
2021/09/02 02:22:42;;;;;;;5.63;2.65;;;;;;;;;;5111263;28;20059;-67
2021/09/02 02:25:08;;;;;;;5.82;2.78;;;;;;;;;;5110975;28;20028;-67
2021/09/02 02:29:19;;;;;;;5.15;2.45;;;;;;;;;;5111961;27;20397;-66
2021/09/02 02:31:45;;;;;;;7.38;2.88;;;;;;;;;;5111459;28;20418;-67
2021/09/02 02:34:28;;;;;;;5.07;2.50;;;;;;;;;;5111417;27;20830;-67
2021/09/02 02:36:55;;;;;;;5.45;3.08;;;;;;;;;;5109995;28;20062;-66
2021/09/02 02:39:38;;;;;;;5.85;2.90;;;;;;;;;;5071001;28;21021;-66
2021/09/02 02:48:20;;;;;;;6.03;2.45;;;;;;;;;;5173125;27;20317;-66
2021/09/02 02:52:33;;;;;;;4.50;2.42;;;;;;;;;;5111630;27;20310;-66
2021/09/02 02:56:15;;;;;;;5.07;2.50;;;;;;;;;;5111143;27;20510;-67
2021/09/02 03:00:12;;;;;;;7.45;2.65;;;;;;;;;;5111620;27;20477;-67
2021/09/02 03:02:38;;;;;;;4.57;2.20;;;;;;;;;;5110825;28;20077;-66
2021/09/02 03:05:05;;;;;;;5.63;2.97;;;;;;;;;;5126900;28;20028;-66
2021/09/02 03:07:33;;;;;;;5.65;2.83;;;;;;;;;;5111132;28;20058;-66
2021/09/02 03:09:59;;;;;;;6.53;2.50;;;;;;;;;;5110625;28;20024;-66
2021/09/02 03:12:25;;;;;;;6.97;3.45;;;;;;;;;;5111018;28;20020;-67
2021/09/02 03:14:51;;;;;;;8.05;3.50;;;;;;;;;;5111060;28;20024;-69
2021/09/02 03:18:03;;;;;;;5.80;2.70;;;;;;;;;;5078025;27;2168072;-66
2021/09/02 03:22:12;;;;;;;6.82;3.15;;;;;;;;;;5111453;27;20505;-66
2021/09/02 03:26:26;;;;;;;5.75;3.00;;;;;;;;;;5111325;27;20384;-66
2021/09/02 03:28:52;;;;;;;8.90;3.10;;;;;;;;;;5111341;28;20482;-66
2021/09/02 03:31:18;;;;;;;6.55;2.92;;;;;;;;;;5110845;28;20028;-66
2021/09/02 03:33:44;;;;;;;5.97;2.90;;;;;;;;;;5111347;28;20027;-67
2021/09/02 03:36:31;;;;;;;6.13;2.75;;;;;;;;;;5132041;27;20308;-66
2021/09/02 03:38:57;;;;;;;5.45;2.80;;;;;;;;;;5092618;28;20081;-66
2021/09/02 03:41:23;;;;;;;5.50;2.65;;;;;;;;;;5111663;28;20028;-67
2021/09/02 03:46:21;;;;;;;6.68;3.53;;;;;;;;;;5110824;27;20429;-67
2021/09/02 03:49:55;;;;;;;5.72;3.05;;;;;;;;;;5111757;27;20878;-66
2021/09/02 03:52:22;;;;;;;6.22;3.10;;;;;;;;;;5109538;28;20529;-66
2021/09/02 03:58:45;;;;;;;5.05;2.60;;;;;;;;;;5111264;27;20457;-67
2021/09/02 04:02:30;;;;;;;6.22;3.97;;;;;;;;;;5071348;28;20402;-67
2021/09/02 04:04:56;;;;;;;6.57;3.30;;;;;;;;;;5070821;28;20024;-68
2021/09/02 04:08:09;;;;;;;8.20;4.05;;;;;;;;;;5071141;28;20508;-70
2021/09/02 04:11:37;;;;;;;8.32;3.33;;;;;;;;;;5111625;27;20454;-67
2021/09/02 04:14:03;;;;;;;6.28;3.55;;;;;;;;;;5110788;28;20098;-68
2021/09/02 04:16:29;;;;;;;7.35;3.65;;;;;;;;;;5111221;28;20391;-68
2021/09/02 04:18:55;;;;;;;6.40;3.20;;;;;;;;;;5111252;28;20028;-68
2021/09/02 04:21:22;;;;;;;5.43;3.05;;;;;;;;;;5110787;28;20035;-67
2021/09/02 04:23:48;;;;;;;8.07;3.25;;;;;;;;;;5111149;28;20016;-68
2021/09/02 04:26:14;;;;;;;5.93;3.00;;;;;;;;;;5111134;28;20024;-68
2021/09/02 04:30:06;;;;;;;7.53;2.80;;;;;;;;;;5111836;27;21026;-69
2021/09/02 04:32:33;;;;;;;7.53;3.40;;;;;;;;;;5111520;28;20031;-69
2021/09/02 04:34:59;;;;;;;7.32;3.55;;;;;;;;;;5110820;28;20065;-69
2021/09/02 04:37:25;;;;;;;6.10;2.75;;;;;;;;;;5109914;28;20091;-68
2021/09/02 04:40:32;;;;;;;5.57;3.20;;;;;;;;;;5111040;27;20388;-69
2021/09/02 04:45:19;;;;;;;5.53;3.20;;;;;;;;;;5111530;27;20113;-69
2021/09/02 04:47:45;;;;;;;7.22;2.88;;;;;;;;;;5111101;28;20031;-71
2021/09/02 04:50:12;;;;;;;7.90;2.88;;;;;;;;;;5111285;28;20434;-70
2021/09/02 04:57:09;;;;;;;6.53;3.05;;;;;;;;;;5111570;27;20388;-66
2021/09/02 04:59:35;;;;;;;5.75;3.00;;;;;;;;;;5109932;28;20031;-66
2021/09/02 05:02:35;;;;;;;5.88;2.58;;;;;;;;;;5111040;27;20310;-68
2021/09/02 05:05:49;;;;;;;7.10;3.42;;;;;;;;;;5051277;28;20792;-71
2021/09/02 05:08:15;;;;;;;5.78;2.72;;;;;;;;;;5050495;28;20039;-70
2021/09/02 05:10:42;;;;;;;6.47;3.08;;;;;;;;;;5050203;28;20022;-68
2021/09/02 05:15:14;;;;;;;5.43;2.83;;;;;;;;;;5105791;27;20821;-70
2021/09/02 05:17:40;;;;;;;7.85;3.53;;;;;;;;;;5090360;28;20431;-71
2021/09/02 05:20:06;;;;;;;6.72;3.28;;;;;;;;;;5110037;28;20020;-70
2021/09/02 05:23:25;;;;;;;6.30;2.72;;;;;;;;;;5110323;27;20473;-71
2021/09/02 05:25:51;;;;;;;9.80;3.28;;;;;;;;;;5118988;28;20028;-69
2021/09/02 05:35:47;;;;;;;5.90;2.88;;;;;;;;;;5066024;27;20474;-70
2021/09/02 05:39:39;;;;;;;6.63;2.45;;;;;;;;;;5109749;27;20381;-70
2021/09/02 05:42:05;;;;;;;6.85;2.78;;;;;;;;;;5108787;28;20040;-70
2021/09/02 05:44:31;;;;;;;5.03;2.30;;;;;;;;;;5108536;28;20099;-71
2021/09/02 05:46:58;;;;;;;4.45;2.67;;;;;;;;;;5109905;28;20051;-73
2021/09/02 05:49:24;;;;;;;6.95;2.85;;;;;;;;;;5108872;28;20020;-70
2021/09/02 05:54:27;;;;;;;5.57;2.20;;;;;;;;;;5109656;27;20397;-72
2021/09/02 05:56:53;;;;;;;6.55;2.78;;;;;;;;;;5098526;28;20024;-68
2021/09/02 05:59:35;;;;;;;5.32;2.50;;;;;;;;;;5110801;27;20433;-73
2021/09/02 06:02:01;;;;;;;5.88;2.75;;;;;;;;;;5110678;28;20536;-73
2021/09/02 06:06:40;;;;;;;8.73;2.67;;;;;;;;;;5124417;27;20116;-70
2021/09/02 06:09:09;;;;;;;4.47;2.00;;;;;;;;;;5124961;28;20092;-72
2021/09/02 06:11:36;;;;;;;6.35;2.47;;;;;;;;;;5093087;28;20024;-70
2021/09/02 06:14:02;;;;;;;5.05;2.28;;;;;;;;;;5087683;28;20539;-71
2021/09/02 06:16:28;;;;;;;6.75;2.92;;;;;;;;;;5096687;28;20028;-68
2021/09/02 06:18:54;;;;;;;10.25;2.90;;;;;;;;;;5098011;28;20017;-69
2021/09/02 06:21:21;;;;;;;6.95;2.70;;;;;;;;;;5096202;28;20019;-69
2021/09/02 06:25:35;;;;;;;6.20;3.05;;;;;;;;;;5109749;27;20397;-67
2021/09/02 06:29:26;;;;;;;3.88;2.22;;;;;;;;;;5110288;27;20396;-69
2021/09/02 06:33:08;;;;;;;6.32;3.10;;;;;;;;;;5109644;27;20520;-69
2021/09/02 06:35:34;;;;;;;7.10;3.33;;;;;;;;;;5109615;28;20019;-69
2021/09/02 06:38:00;;;;;;;5.57;2.58;;;;;;;;;;5108421;28;20028;-68
2021/09/02 06:40:26;;;;;;;7.05;2.60;;;;;;;;;;5105073;28;20030;-67
2021/09/02 06:42:53;;;;;;;5.70;2.35;;;;;;;;;;5108648;28;20476;-70
2021/09/02 06:45:19;;;;;;;7.25;2.72;;;;;;;;;;5109444;28;20020;-69
2021/09/02 06:47:45;;;;;;;7.00;2.50;;;;;;;;;;5109946;28;20019;-71
2021/09/02 06:50:13;;;;;;;5.95;2.35;;;;;;;;;;5110161;28;20024;-71
2021/09/02 06:52:40;;;;;;;5.10;2.30;;;;;;;;;;5109888;28;20110;-71
2021/09/02 06:57:21;;;;;;;6.22;2.40;;;;;;;;;;5170624;27;20202;-70
2021/09/02 07:00:12;;;;;;;5.38;2.50;;;;;;;;;;5109905;27;20427;-69
2021/09/02 07:02:39;;;;;;;5.18;2.70;;;;;;;;;;5109893;28;20099;-71
2021/09/02 07:05:05;;;;;;;7.88;3.65;;;;;;;;;;5108882;28;20430;-70
2021/09/02 07:08:36;;;;;;;6.00;2.38;;;;;;;;;;5069221;28;20399;-69
2021/09/02 07:13:38;;;;;;;4.72;1.98;;;;;;;;;;5151774;27;20438;-71
2021/09/02 07:16:05;;;;;;;5.75;2.75;;;;;;;;;;5149043;27;20031;-70
2021/09/02 07:18:31;;;;;;;4.63;2.38;;;;;;;;;;5150576;27;20026;-69
2021/09/02 07:20:57;;;;;;;8.55;2.70;;;;;;;;;;5151453;27;20493;-69
2021/09/02 07:25:32;;;;;;;5.35;2.45;;;;;;;;;;5106543;27;21020;-69
2021/09/02 07:27:58;;;;;;;8.85;2.33;;;;;;;;;;5110839;28;20020;-69
2021/09/02 07:30:24;;;;;;;5.75;2.60;;;;;;;;;;5110044;28;20024;-69
2021/09/02 07:32:51;;;;;;;6.85;2.92;;;;;;;;;;5110387;28;20028;-68
2021/09/02 07:36:30;;;;;;;5.68;2.30;;;;;;;;;;5110358;27;20420;-67
2021/09/02 07:39:32;;;;;;;7.05;2.58;;;;;;;;;;5105892;27;20319;-67
2021/09/02 07:41:58;;;;;;;7.82;2.75;;;;;;;;;;5072758;28;20020;-67
2021/09/02 07:44:24;;;;;;;4.78;2.15;;;;;;;;;;5085196;28;20111;-67
2021/09/02 07:46:50;;;;;;;6.35;2.70;;;;;;;;;;5088903;28;20491;-67
2021/09/02 07:49:16;;;;;;;5.53;2.45;;;;;;;;;;5086664;28;20025;-67
2021/09/02 07:52:09;;;;;;;7.18;3.25;;;;;;;;;;5110136;27;20438;-70
2021/09/02 07:54:35;;;;;;;5.35;2.53;;;;;;;;;;5110826;28;20023;-68
2021/09/02 07:57:02;;;;;;;9.93;3.08;;;;;;;;;;5108630;28;20084;-69
2021/09/02 07:59:28;;;;;;;4.63;2.63;;;;;;;;;;5110482;28;20030;-68
2021/09/02 08:03:04;;;;;;;6.85;3.22;;;;;;;;;;5110480;27;20872;-70
2021/09/02 08:05:30;;;;;;;5.22;2.53;;;;;;;;;;5110483;28;20020;-68
2021/09/02 08:07:56;;;;;;;7.70;3.75;;;;;;;;;;5109635;28;20563;-70
2021/09/02 08:11:04;;;;;;;5.68;2.40;;;;;;;;;;5110551;27;20324;-68
2021/09/02 08:13:30;;;;;;;6.88;3.28;;;;;;;;;;5110377;28;20028;-68
2021/09/02 08:15:56;;;;;;;4.55;2.80;;;;;;;;;;5110040;28;20038;-69
2021/09/02 08:18:23;;;;;;;10.55;3.83;;;;;;;;;;5109523;28;20357;-75
2021/09/02 08:20:49;;;;;;;5.00;2.78;;;;;;;;;;5106871;28;20024;-73
2021/09/02 08:23:15;;;;;;;6.13;3.40;;;;;;;;;;5107799;28;20028;-73
2021/09/02 08:25:41;;;;;;;8.77;3.10;;;;;;;;;;5105971;28;20080;-73
2021/09/02 08:28:08;;;;;;;7.07;3.15;;;;;;;;;;5107069;28;20024;-73
2021/09/02 08:30:34;;;;;;;8.20;3.30;;;;;;;;;;5108983;28;20503;-73
2021/09/02 08:33:01;;;;;;;9.27;3.60;;;;;;;;;;5108450;28;20024;-72
2021/09/02 08:36:04;;;;;;;4.70;2.55;;;;;;;;;;5090889;27;20386;-72
2021/09/02 08:42:35;;;;;;;6.55;2.90;;;;;;;;;;5110929;27;20384;-74
2021/09/02 08:46:37;;;;;;;5.18;2.85;;;;;;;;;;5109458;27;20397;-73
2021/09/02 08:49:05;;;;;;;9.52;2.95;;;;;;;;;;5110530;28;20024;-73
2021/09/02 08:52:32;;;;;;;6.75;3.25;;;;;;;;;;5110962;27;20430;-71
2021/09/02 08:54:59;;;;;;;5.78;3.17;;;;;;;;;;5110283;28;20430;-72
2021/09/02 08:57:25;;;;;;;6.32;2.70;;;;;;;;;;5109783;28;20081;-69
2021/09/02 08:59:52;;;;;;;5.55;2.55;;;;;;;;;;5108126;28;20012;-69
2021/09/02 09:02:25;;;;;;;7.45;2.45;;;;;;;;;;5120222;28;20464;-68
2021/09/02 09:05:06;;;;;;;7.88;2.88;;;;;;;;;;5131253;28;20098;-71
2021/09/02 09:07:39;;;;;;;6.07;3.17;;;;;;;;;;5131218;28;20016;-70
2021/09/02 09:10:11;;;;;;;6.18;2.85;;;;;;;;;;5131109;28;20032;-70
2021/09/02 09:12:42;;;;;;;6.55;2.90;;;;;;;;;;5131034;28;20061;-70
2021/09/02 09:15:10;;;;;;;6.65;3.08;;;;;;;;;;5130583;28;20019;-69
2021/09/02 09:17:36;;;;;;;6.78;3.22;;;;;;;;;;5130958;28;20054;-70
2021/09/02 09:20:05;;;;;;;6.53;2.83;;;;;;;;;;5130571;28;20075;-68
2021/09/02 09:23:54;;;;;;;10.95;3.53;;;;;;;;;;5107313;27;20450;-67
2021/09/02 09:26:21;;;;;;;6.10;2.92;;;;;;;;;;5107705;28;20438;-67
2021/09/02 09:28:48;;;;;;;6.30;3.25;;;;;;;;;;5118250;28;20386;-70
2021/09/02 09:31:24;;;;;;;5.93;2.92;;;;;;;;;;5131406;28;20027;-69
2021/09/02 09:33:52;;;;;;;7.78;3.20;;;;;;;;;;5129031;28;20019;-67
2021/09/02 09:36:21;;;;;;;6.05;3.25;;;;;;;;;;5129073;28;20391;-67
2021/09/02 09:39:00;;;;;;;6.65;2.92;;;;;;;;;;5130690;28;20059;-68
2021/09/02 09:41:46;;;;;;;5.13;2.88;;;;;;;;;;5130905;28;20484;-66
2021/09/02 09:44:28;;;;;;;9.18;3.45;;;;;;;;;;5129191;28;20031;-66
2021/09/02 09:49:46;;;;;;;5.55;3.22;;;;;;;;;;5110174;27;20389;-68
2021/09/02 09:52:44;;;;;;;5.93;3.30;;;;;;;;;;5108538;27;20388;-68
2021/09/02 09:55:16;;;;;;;6.43;3.13;;;;;;;;;;5108645;28;20032;-68
2021/09/02 09:57:42;;;;;;;6.78;3.33;;;;;;;;;;5109388;28;20069;-73
2021/09/02 10:00:10;;;;;;;8.13;3.63;;;;;;;;;;5108449;28;20024;-73
2021/09/02 10:02:36;;;;;;;6.38;3.53;;;;;;;;;;5109670;28;20085;-66
2021/09/02 10:05:24;;;;;;;6.90;3.53;;;;;;;;;;5110103;27;20424;-66
2021/09/02 10:07:51;;;;;;;7.35;3.30;;;;;;;;;;5110702;28;20038;-66
2021/09/02 10:10:18;;;;;;;9.02;3.63;;;;;;;;;;5110158;28;20027;-66
2021/09/02 10:12:45;;;;;;;8.30;3.78;;;;;;;;;;5108645;28;20034;-67
2021/09/02 10:15:13;;;;;;;10.73;3.83;;;;;;;;;;5109183;28;20023;-65
2021/09/02 10:17:40;;;;;;;7.63;3.40;;;;;;;;;;5110399;28;20106;-65
2021/09/02 10:20:45;;;;;;;7.30;3.67;;;;;;;;;;5068030;28;20989;-66
2021/09/02 10:23:12;;;;;;;6.85;3.60;;;;;;;;;;5066584;28;20020;-67
2021/09/02 10:25:39;;;;;;;4.70;2.90;;;;;;;;;;5067980;28;20025;-66
2021/09/02 10:28:05;;;;;;;6.90;3.83;;;;;;;;;;5069637;28;20031;-67
2021/09/02 10:30:32;;;;;;;8.45;3.67;;;;;;;;;;5069451;28;20024;-67
2021/09/02 10:32:59;;;;;;;6.63;3.40;;;;;;;;;;5068217;28;20111;-67
2021/09/02 10:35:25;;;;;;;5.80;3.33;;;;;;;;;;5069771;28;20039;-67
2021/09/02 10:37:52;;;;;;;9.82;4.28;;;;;;;;;;5068708;28;20029;-67
2021/09/02 10:40:18;;;;;;;8.30;4.30;;;;;;;;;;5069487;28;20128;-66
2021/09/02 10:42:46;;;;;;;9.68;4.20;;;;;;;;;;5068726;28;20397;-66
2021/09/02 10:45:28;;;;;;;8.55;3.50;;;;;;;;;;5066824;28;20477;-67
2021/09/02 10:47:55;;;;;;;6.13;3.90;;;;;;;;;;5066724;28;20032;-65
2021/09/02 10:50:23;;;;;;;5.13;2.92;;;;;;;;;;5069324;28;20025;-66
2021/09/02 10:52:49;;;;;;;6.18;3.22;;;;;;;;;;5063054;28;20797;-67
2021/09/02 10:55:39;;;;;;;6.13;3.15;;;;;;;;;;5067922;28;20049;-65
2021/09/02 10:58:06;;;;;;;11.38;3.55;;;;;;;;;;5067260;28;20071;-65
2021/09/02 11:00:33;;;;;;;6.00;3.17;;;;;;;;;;5065926;28;20474;-66
2021/09/02 11:03:13;;;;;;;6.60;3.55;;;;;;;;;;5069715;28;20469;-65
2021/09/02 11:05:41;;;;;;;9.27;3.80;;;;;;;;;;5069531;28;20436;-65
2021/09/02 11:08:07;;;;;;;6.43;3.83;;;;;;;;;;5068588;28;20017;-65
2021/09/02 11:10:34;;;;;;;17.10;3.90;;;;;;;;;;5068746;28;20096;-66
2021/09/02 11:13:01;;;;;;;6.10;3.50;;;;;;;;;;5051084;28;20036;-66
2021/09/02 11:15:28;;;;;;;6.85;3.53;;;;;;;;;;5048808;28;20113;-66
2021/09/02 11:17:58;;;;;;;11.80;4.15;;;;;;;;;;5048003;28;20029;-65
2021/09/02 11:20:26;;;;;;;10.98;3.88;;;;;;;;;;5048750;28;20045;-66
2021/09/02 11:23:06;;;;;;;5.95;3.10;;;;;;;;;;5048562;28;20017;-66
2021/09/02 11:25:39;;;;;;;5.57;3.15;;;;;;;;;;5057868;28;20069;-66
2021/09/02 11:28:05;;;;;;;4.75;2.85;;;;;;;;;;5068761;28;20111;-66
2021/09/02 11:30:34;;;;;;;6.13;3.10;;;;;;;;;;5062708;28;20028;-67
2021/09/02 11:33:01;;;;;;;5.00;2.67;;;;;;;;;;5054415;28;20053;-67
2021/09/02 11:35:28;;;;;;;6.20;2.40;;;;;;;;;;5052275;28;20024;-67
2021/09/02 11:37:54;;;;;;;4.47;2.75;;;;;;;;;;5053252;28;20025;-68
2021/09/02 11:40:27;;;;;;;8.07;3.25;;;;;;;;;;5054153;28;20040;-68
2021/09/02 11:42:54;;;;;;;7.13;3.42;;;;;;;;;;5054405;28;20029;-67
2021/09/02 11:45:21;;;;;;;7.57;3.33;;;;;;;;;;5055555;28;20385;-68
2021/09/02 11:47:50;;;;;;;6.07;3.20;;;;;;;;;;5055263;28;20433;-67
2021/09/02 11:50:16;;;;;;;7.32;2.78;;;;;;;;;;5054940;28;20380;-67
2021/09/02 11:52:44;;;;;;;5.47;2.92;;;;;;;;;;5055127;28;20028;-67
2021/09/02 11:55:29;;;;;;;6.13;3.45;;;;;;;;;;5053994;28;20029;-67
2021/09/02 11:57:58;;;;;;;4.10;2.85;;;;;;;;;;5052106;28;20154;-68
2021/09/02 12:00:25;;;;;;;5.30;2.88;;;;;;;;;;5055099;28;20037;-64
2021/09/02 12:02:52;;;;;;;6.97;3.30;;;;;;;;;;5055197;28;20029;-65
2021/09/02 12:05:22;;;;;;;5.43;3.22;;;;;;;;;;5054620;28;20068;-66
2021/09/02 12:07:49;;;;;;;9.52;3.20;;;;;;;;;;5055229;28;20027;-67
2021/09/02 12:10:16;;;;;;;7.00;3.00;;;;;;;;;;5051388;28;20057;-67
2021/09/02 12:12:42;;;;;;;16.63;3.90;;;;;;;;;;5054579;28;20025;-67
2021/09/02 12:15:22;;;;;;;8.98;3.75;;;;;;;;;;5055098;28;20025;-67
2021/09/02 12:17:48;;;;;;;11.05;3.00;;;;;;;;;;5054818;28;20021;-67
2021/09/02 12:20:23;;;;;;;5.43;2.67;;;;;;;;;;5053563;28;20119;-67
2021/09/02 12:22:49;;;;;;;8.23;3.30;;;;;;;;;;5052631;28;20043;-67
2021/09/02 12:25:21;;;;;;;7.07;3.35;;;;;;;;;;5053895;28;20036;-67
2021/09/02 12:27:49;;;;;;;11.90;3.22;;;;;;;;;;5054512;28;20461;-68
2021/09/02 12:30:16;;;;;;;5.97;2.63;;;;;;;;;;5054545;28;20039;-68
2021/09/02 12:32:43;;;;;;;8.27;2.92;;;;;;;;;;5044241;28;20491;-68
2021/09/02 12:35:16;;;;;;;5.43;2.45;;;;;;;;;;5034817;28;20029;-68
2021/09/02 12:37:43;;;;;;;5.47;2.80;;;;;;;;;;5051915;28;20028;-68
2021/09/02 12:40:13;;;;;;;4.55;2.30;;;;;;;;;;5054065;28;20033;-69
2021/09/02 12:42:40;;;;;;;5.72;2.20;;;;;;;;;;5053664;28;20074;-68
2021/09/02 12:45:11;;;;;;;5.95;2.63;;;;;;;;;;5051000;28;20094;-66
2021/09/02 12:47:38;;;;;;;4.85;2.28;;;;;;;;;;5054048;28;20028;-68
2021/09/02 12:50:14;;;;;;;5.57;2.45;;;;;;;;;;5054505;28;20103;-69
2021/09/02 12:52:40;;;;;;;7.22;3.20;;;;;;;;;;5054256;28;20017;-69
2021/09/02 12:55:09;;;;;;;6.30;2.42;;;;;;;;;;5052277;28;20061;-68
2021/09/02 12:57:48;;;;;;;4.55;2.78;;;;;;;;;;5054483;28;20098;-68
2021/09/02 13:00:16;;;;;;;7.70;2.58;;;;;;;;;;5053922;28;20037;-68
2021/09/02 13:02:43;;;;;;;4.80;2.47;;;;;;;;;;5052849;28;20021;-68
2021/09/02 13:05:10;;;;;;;4.32;2.63;;;;;;;;;;5053949;28;20057;-69
2021/09/02 13:07:56;;;;;;;11.10;3.40;;;;;;;;;;5053825;28;20017;-68
2021/09/02 13:10:23;;;;;;;21.38;2.95;;;;;;;;;;5053988;28;20504;-68
2021/09/02 13:12:50;;;;;;;4.15;2.33;;;;;;;;;;5053104;28;20021;-68
2021/09/02 13:15:17;;;;;;;5.32;2.47;;;;;;;;;;5053611;28;20025;-68
2021/09/02 13:17:43;;;;;;;5.18;1.85;;;;;;;;;;5052053;28;20405;-68
2021/09/02 13:20:10;;;;;;;5.03;2.42;;;;;;;;;;5052043;28;20425;-68
2021/09/02 13:22:37;;;;;;;4.25;2.00;;;;;;;;;;5052078;28;20086;-68
2021/09/02 13:25:04;;;;;;;4.95;2.10;;;;;;;;;;5053526;28;20032;-68
2021/09/02 13:27:30;;;;;;;6.90;3.72;;;;;;;;;;5045152;28;20025;-69
2021/09/02 13:29:56;;;;;;;4.07;2.15;;;;;;;;;;5040644;28;20052;-69
2021/09/02 13:32:22;;;;;;;5.43;2.15;;;;;;;;;;5033912;28;20033;-69
2021/09/02 13:34:49;;;;;;;3.85;2.10;;;;;;;;;;5033800;28;20034;-69
2021/09/02 13:37:15;;;;;;;5.45;2.28;;;;;;;;;;5033306;28;20039;-68
2021/09/02 13:39:41;;;;;;;4.43;1.95;;;;;;;;;;5032885;28;20067;-68
2021/09/02 13:42:08;;;;;;;5.30;2.60;;;;;;;;;;5031262;28;20068;-68
2021/09/02 13:44:34;;;;;;;4.85;2.42;;;;;;;;;;5031637;28;20060;-68
2021/09/02 13:47:00;;;;;;;4.65;1.95;;;;;;;;;;5031767;28;20422;-68
2021/09/02 13:49:26;;;;;;;4.18;2.38;;;;;;;;;;5031473;28;20021;-67
2021/09/02 13:51:54;;;;;;;5.50;2.22;;;;;;;;;;5032237;28;20108;-68
2021/09/02 13:54:20;;;;;;;4.38;2.00;;;;;;;;;;5031603;28;20021;-67
2021/09/02 13:56:47;;;;;;;4.07;2.08;;;;;;;;;;5032796;28;20025;-68
2021/09/02 13:59:13;;;;;;;4.70;1.90;;;;;;;;;;5032123;28;20113;-67
2021/09/02 14:01:40;;;;;;;5.57;2.25;;;;;;;;;;5033044;28;20044;-67
2021/09/02 14:04:07;;;;;;;6.32;2.17;;;;;;;;;;5031749;28;20025;-67
2021/09/02 14:06:34;;;;;;;3.15;1.70;;;;;;;;;;5033421;28;20041;-67
2021/09/02 14:09:00;;;;;;;14.02;1.98;;;;;;;;;;5033341;28;20475;-67
2021/09/02 14:11:26;;;;;;;3.65;2.05;;;;;;;;;;5032998;28;20029;-68
2021/09/02 14:13:52;;;;;;;3.83;2.00;;;;;;;;;;5033318;28;20028;-68
2021/09/02 14:16:18;;;;;;;4.72;2.20;;;;;;;;;;5031938;28;20028;-68
2021/09/02 14:18:44;;;;;;;8.05;1.98;;;;;;;;;;5032607;28;20540;-68
2021/09/02 14:21:11;;;;;;;3.50;1.70;;;;;;;;;;5033375;28;20034;-68
2021/09/02 14:23:37;;;;;;;4.70;2.22;;;;;;;;;;5033158;28;20021;-68
2021/09/02 14:26:03;;;;;;;3.92;1.77;;;;;;;;;;5032893;28;20022;-68
2021/09/02 14:28:29;;;;;;;4.10;2.25;;;;;;;;;;5032966;28;20037;-68
2021/09/02 14:30:57;;;;;;;2.42;1.60;;;;;;;;;;5031573;28;20052;-68
2021/09/02 14:33:23;;;;;;;3.80;1.98;;;;;;;;;;5050867;28;20371;-68
2021/09/02 14:35:50;;;;;;;4.10;2.03;;;;;;;;;;5051130;28;20021;-68
2021/09/02 14:38:16;;;;;;;11.07;2.67;;;;;;;;;;5050492;28;20035;-68
2021/09/02 14:40:43;;;;;;;4.53;1.90;;;;;;;;;;5051040;28;20100;-68
2021/09/02 14:43:10;;;;;;;5.78;2.13;;;;;;;;;;5049357;28;20021;-69
2021/09/02 14:45:36;;;;;;;4.05;2.17;;;;;;;;;;5050312;28;20040;-68
2021/09/02 14:48:02;;;;;;;2.75;1.58;;;;;;;;;;5051502;28;20020;-68
2021/09/02 14:50:28;;;;;;;2.60;1.73;;;;;;;;;;5052438;28;20478;-68
2021/09/02 14:52:55;;;;;;;5.95;2.30;;;;;;;;;;5052490;28;20036;-68
2021/09/02 14:55:21;;;;;;;8.85;2.90;;;;;;;;;;5052790;28;20022;-68
2021/09/02 14:57:47;;;;;;;2.97;1.98;;;;;;;;;;5052823;28;20027;-68
2021/09/02 15:00:14;;;;;;;2.90;1.70;;;;;;;;;;5052336;28;20473;-69
2021/09/02 15:02:41;;;;;;;2.95;1.77;;;;;;;;;;5052363;28;20092;-69
2021/09/02 15:05:07;;;;;;;5.40;2.40;;;;;;;;;;5052730;28;20082;-68
2021/09/02 15:07:34;;;;;;;5.03;2.35;;;;;;;;;;5056137;28;20377;-69
2021/09/02 15:10:00;;;;;;;3.95;2.00;;;;;;;;;;5057024;28;20029;-68
2021/09/02 15:12:27;;;;;;;5.72;2.42;;;;;;;;;;5056049;28;20017;-68
2021/09/02 15:14:53;;;;;;;6.88;3.58;;;;;;;;;;5056037;28;20031;-68
2021/09/02 15:17:22;;;;;;;4.47;2.38;;;;;;;;;;5056309;28;20025;-68
2021/09/02 15:19:48;;;;;;;4.65;2.28;;;;;;;;;;5056033;28;20045;-68
2021/09/02 15:22:15;;;;;;;5.82;2.40;;;;;;;;;;5056004;28;20017;-68
2021/09/02 15:24:41;;;;;;;4.13;2.42;;;;;;;;;;5056245;28;20021;-68
2021/09/02 15:27:07;;;;;;;4.40;2.42;;;;;;;;;;5056186;28;20024;-68
2021/09/02 15:29:33;;;;;;;3.97;1.73;;;;;;;;;;5055754;28;20021;-67
2021/09/02 15:32:00;;;;;;;4.30;2.03;;;;;;;;;;5056053;28;20032;-68
2021/09/02 15:34:26;;;;;;;6.13;2.35;;;;;;;;;;5056065;28;20098;-69
2021/09/02 15:36:52;;;;;;;2.97;2.00;;;;;;;;;;5055581;28;20493;-69
2021/09/02 15:39:19;;;;;;;3.60;2.30;;;;;;;;;;5055888;28;20122;-68
2021/09/02 15:41:45;;;;;;;5.25;2.30;;;;;;;;;;5055509;28;20033;-68
2021/09/02 15:44:13;;;;;;;4.07;2.28;;;;;;;;;;5056031;28;20036;-68
2021/09/02 15:46:39;;;;;;;5.35;2.90;;;;;;;;;;5055793;28;20095;-67
2021/09/02 15:49:06;;;;;;;4.45;2.30;;;;;;;;;;5055880;28;20028;-68
2021/09/02 15:51:32;;;;;;;3.83;2.30;;;;;;;;;;5054537;28;20024;-68
2021/09/02 15:53:58;;;;;;;4.78;2.78;;;;;;;;;;5055714;28;20025;-68
2021/09/02 15:56:24;;;;;;;7.78;2.70;;;;;;;;;;5055448;28;20096;-68
2021/09/02 15:58:51;;;;;;;6.00;3.17;;;;;;;;;;5055558;28;20082;-68
2021/09/02 16:01:17;;;;;;;6.43;3.13;;;;;;;;;;5055806;28;20409;-68
2021/09/02 16:03:44;;;;;;;5.00;3.05;;;;;;;;;;5055387;28;20017;-69
2021/09/02 16:06:11;;;;;;;5.50;3.03;;;;;;;;;;5055416;28;20147;-68
2021/09/02 16:08:37;;;;;;;7.35;2.58;;;;;;;;;;5055395;28;20037;-69
2021/09/02 16:11:03;;;;;;;6.53;2.55;;;;;;;;;;5054902;28;20481;-68
2021/09/02 16:13:30;;;;;;;5.32;2.95;;;;;;;;;;5055286;28;20036;-68
2021/09/02 16:15:56;;;;;;;7.15;3.10;;;;;;;;;;5053977;28;20491;-68
2021/09/02 16:18:23;;;;;;;4.22;2.63;;;;;;;;;;5054748;28;20397;-68
2021/09/02 16:20:53;;;;;;;6.13;2.88;;;;;;;;;;5054952;28;20045;-68
2021/09/02 16:23:19;;;;;;;8.15;2.58;;;;;;;;;;5055146;28;20017;-68
2021/09/02 16:25:45;;;;;;;5.03;2.65;;;;;;;;;;5054748;28;20424;-68
2021/09/02 16:28:12;;;;;;;4.97;2.80;;;;;;;;;;5055059;28;20021;-68
2021/09/02 16:30:38;;;;;;;5.35;2.92;;;;;;;;;;5053805;28;20229;-68
2021/09/02 16:33:05;;;;;;;5.10;2.47;;;;;;;;;;5054153;28;20457;-68
2021/09/02 16:35:32;;;;;;;5.57;2.50;;;;;;;;;;5054755;28;20028;-68